< < Back
Terminal Aerodrome Forecast


Current Version              Previous Versions:   1  2  3  4  5  6  7  8  9  

Terminal Aerodrome Forecast

062
FTUS44 KBMX 251900 AAA
TAFBHM
TAF AMD
KBHM 251900Z 2519/2618 35006KT P6SM VCTS SCT050CB
      TEMPO 2519/2520 VRB10G20KT TSRA BKN060CB
     FM260100 VRB02KT P6SM SCT250=

Latest METAR

277
SAUS70 KWBC 260000 RRC
MTRBHM
METAR KBHM 252353Z 00000KT 10SM FEW180 BKN250 29/22 A3007 RMK AO2 SLP174
60003 T02940222 10356 20250 58001


USA.gov is the U.S. government's official web portal to all federal, state and local government web resources and services.